sensor_id;sensor_type;location;lat;lon;timestamp;P1;durP1;ratioP1;P2;durP2;ratioP2
6434;SDS011;3250;42.694;23.278;2023-03-23T00:02:11;52.27;;;26.50;;
6434;SDS011;3250;42.694;23.278;2023-03-23T00:04:36;58.53;;;31.27;;
6434;SDS011;3250;42.694;23.278;2023-03-23T00:07:01;46.03;;;24.97;;
6434;SDS011;3250;42.694;23.278;2023-03-23T00:09:27;45.40;;;24.23;;
6434;SDS011;3250;42.694;23.278;2023-03-23T00:11:55;49.63;;;24.27;;
6434;SDS011;3250;42.694;23.278;2023-03-23T00:14:30;48.03;;;25.57;;
6434;SDS011;3250;42.694;23.278;2023-03-23T00:17:06;56.37;;;27.40;;
6434;SDS011;3250;42.694;23.278;2023-03-23T00:19:36;56.13;;;29.47;;
6434;SDS011;3250;42.694;23.278;2023-03-23T00:22:11;48.03;;;27.70;;
6434;SDS011;3250;42.694;23.278;2023-03-23T00:24:37;47.17;;;27.60;;
6434;SDS011;3250;42.694;23.278;2023-03-23T00:27:03;51.13;;;27.40;;
6434;SDS011;3250;42.694;23.278;2023-03-23T00:29:28;54.43;;;26.60;;
6434;SDS011;3250;42.694;23.278;2023-03-23T00:31:54;47.90;;;26.00;;
6434;SDS011;3250;42.694;23.278;2023-03-23T00:34:21;50.57;;;26.77;;
6434;SDS011;3250;42.694;23.278;2023-03-23T00:36:50;48.90;;;25.83;;
6434;SDS011;3250;42.694;23.278;2023-03-23T00:39:22;46.37;;;23.63;;
6434;SDS011;3250;42.694;23.278;2023-03-23T00:41:50;46.63;;;24.67;;
6434;SDS011;3250;42.694;23.278;2023-03-23T00:44:16;51.90;;;27.63;;
6434;SDS011;3250;42.694;23.278;2023-03-23T00:46:45;52.73;;;28.03;;
6434;SDS011;3250;42.694;23.278;2023-03-23T00:49:13;47.93;;;25.70;;
6434;SDS011;3250;42.694;23.278;2023-03-23T00:51:41;44.60;;;22.77;;
6434;SDS011;3250;42.694;23.278;2023-03-23T00:54:07;46.83;;;24.20;;
6434;SDS011;3250;42.694;23.278;2023-03-23T00:56:33;45.83;;;23.67;;
6434;SDS011;3250;42.694;23.278;2023-03-23T00:58:58;46.50;;;23.67;;
6434;SDS011;3250;42.694;23.278;2023-03-23T01:01:24;52.00;;;25.93;;
6434;SDS011;3250;42.694;23.278;2023-03-23T01:03:49;46.00;;;24.73;;
6434;SDS011;3250;42.694;23.278;2023-03-23T01:06:15;41.57;;;23.53;;
6434;SDS011;3250;42.694;23.278;2023-03-23T01:08:40;47.17;;;23.97;;
6434;SDS011;3250;42.694;23.278;2023-03-23T01:11:11;45.17;;;23.83;;
6434;SDS011;3250;42.694;23.278;2023-03-23T01:13:39;41.70;;;21.90;;
6434;SDS011;3250;42.694;23.278;2023-03-23T01:16:06;42.43;;;23.53;;
6434;SDS011;3250;42.694;23.278;2023-03-23T01:18:32;44.43;;;24.10;;
6434;SDS011;3250;42.694;23.278;2023-03-23T01:20:57;36.17;;;19.27;;
6434;SDS011;3250;42.694;23.278;2023-03-23T01:23:29;40.63;;;21.83;;
6434;SDS011;3250;42.694;23.278;2023-03-23T01:25:54;37.90;;;21.23;;
6434;SDS011;3250;42.694;23.278;2023-03-23T01:28:22;37.23;;;20.60;;
6434;SDS011;3250;42.694;23.278;2023-03-23T01:30:48;33.43;;;18.67;;
6434;SDS011;3250;42.694;23.278;2023-03-23T01:33:13;29.00;;;16.33;;
6434;SDS011;3250;42.694;23.278;2023-03-23T01:35:38;26.63;;;14.60;;
6434;SDS011;3250;42.694;23.278;2023-03-23T01:38:04;21.63;;;12.87;;
6434;SDS011;3250;42.694;23.278;2023-03-23T01:40:29;24.00;;;13.77;;
6434;SDS011;3250;42.694;23.278;2023-03-23T01:42:55;21.40;;;12.37;;
6434;SDS011;3250;42.694;23.278;2023-03-23T01:45:22;15.20;;;10.87;;
6434;SDS011;3250;42.694;23.278;2023-03-23T01:47:56;17.60;;;10.33;;
6434;SDS011;3250;42.694;23.278;2023-03-23T01:51:25;20.23;;;11.30;;
6434;SDS011;3250;42.694;23.278;2023-03-23T01:53:34;21.67;;;11.27;;
6434;SDS011;3250;42.694;23.278;2023-03-23T01:56:03;20.90;;;12.43;;
6434;SDS011;3250;42.694;23.278;2023-03-23T01:58:31;18.07;;;10.83;;
6434;SDS011;3250;42.694;23.278;2023-03-23T02:00:58;16.67;;;10.83;;
6434;SDS011;3250;42.694;23.278;2023-03-23T02:03:28;23.30;;;13.67;;
6434;SDS011;3250;42.694;23.278;2023-03-23T02:05:56;17.80;;;10.93;;
6434;SDS011;3250;42.694;23.278;2023-03-23T02:08:23;23.63;;;13.77;;
6434;SDS011;3250;42.694;23.278;2023-03-23T02:10:51;19.70;;;12.10;;
6434;SDS011;3250;42.694;23.278;2023-03-23T02:13:17;29.33;;;16.60;;
6434;SDS011;3250;42.694;23.278;2023-03-23T02:34:35;23.43;;;12.03;;
6434;SDS011;3250;42.694;23.278;2023-03-23T02:39:56;22.10;;;13.00;;
6434;SDS011;3250;42.694;23.278;2023-03-23T02:42:33;20.90;;;11.93;;
6434;SDS011;3250;42.694;23.278;2023-03-23T02:45:02;20.37;;;11.83;;
6434;SDS011;3250;42.694;23.278;2023-03-23T02:47:30;24.60;;;12.20;;
6434;SDS011;3250;42.694;23.278;2023-03-23T02:49:59;21.53;;;13.00;;
6434;SDS011;3250;42.694;23.278;2023-03-23T02:52:26;22.50;;;12.73;;
6434;SDS011;3250;42.694;23.278;2023-03-23T02:54:55;26.73;;;13.57;;
6434;SDS011;3250;42.694;23.278;2023-03-23T02:57:23;26.37;;;13.43;;
6434;SDS011;3250;42.694;23.278;2023-03-23T02:59:51;25.50;;;14.10;;
6434;SDS011;3250;42.694;23.278;2023-03-23T03:02:26;25.70;;;15.47;;
6434;SDS011;3250;42.694;23.278;2023-03-23T03:12:46;31.20;;;16.23;;
6434;SDS011;3250;42.694;23.278;2023-03-23T03:16:06;31.37;;;16.67;;
6434;SDS011;3250;42.694;23.278;2023-03-23T03:21:03;27.73;;;18.10;;
6434;SDS011;3250;42.694;23.278;2023-03-23T03:23:33;39.40;;;20.07;;
6434;SDS011;3250;42.694;23.278;2023-03-23T03:26:00;33.20;;;21.48;;
6434;SDS011;3250;42.694;23.278;2023-03-23T03:28:29;34.23;;;20.20;;
6434;SDS011;3250;42.694;23.278;2023-03-23T03:30:58;37.40;;;22.17;;
6434;SDS011;3250;42.694;23.278;2023-03-23T03:33:26;43.00;;;24.23;;
6434;SDS011;3250;42.694;23.278;2023-03-23T03:35:56;46.33;;;26.77;;
6434;SDS011;3250;42.694;23.278;2023-03-23T03:38:23;42.47;;;26.07;;
6434;SDS011;3250;42.694;23.278;2023-03-23T03:40:49;51.47;;;28.53;;
6434;SDS011;3250;42.694;23.278;2023-03-23T03:43:15;52.57;;;30.70;;
6434;SDS011;3250;42.694;23.278;2023-03-23T03:45:40;54.23;;;33.27;;
6434;SDS011;3250;42.694;23.278;2023-03-23T03:48:07;63.58;;;39.08;;
6434;SDS011;3250;42.694;23.278;2023-03-23T03:50:32;62.77;;;35.93;;
6434;SDS011;3250;42.694;23.278;2023-03-23T03:52:58;58.97;;;35.53;;
6434;SDS011;3250;42.694;23.278;2023-03-23T03:55:23;58.70;;;36.53;;
6434;SDS011;3250;42.694;23.278;2023-03-23T03:57:49;55.73;;;33.77;;
6434;SDS011;3250;42.694;23.278;2023-03-23T04:00:14;57.77;;;35.67;;
6434;SDS011;3250;42.694;23.278;2023-03-23T04:02:41;63.67;;;35.40;;
6434;SDS011;3250;42.694;23.278;2023-03-23T04:05:09;49.90;;;30.33;;
6434;SDS011;3250;42.694;23.278;2023-03-23T04:07:35;50.13;;;31.67;;
6434;SDS011;3250;42.694;23.278;2023-03-23T04:10:05;55.63;;;31.40;;
6434;SDS011;3250;42.694;23.278;2023-03-23T04:12:32;48.47;;;30.30;;
6434;SDS011;3250;42.694;23.278;2023-03-23T04:14:58;58.88;;;36.55;;
6434;SDS011;3250;42.694;23.278;2023-03-23T04:17:23;54.67;;;32.17;;
6434;SDS011;3250;42.694;23.278;2023-03-23T04:19:51;54.40;;;31.10;;
6434;SDS011;3250;42.694;23.278;2023-03-23T04:22:17;51.03;;;31.13;;
6434;SDS011;3250;42.694;23.278;2023-03-23T04:24:43;52.83;;;32.03;;
6434;SDS011;3250;42.694;23.278;2023-03-23T04:27:08;56.20;;;33.27;;
6434;SDS011;3250;42.694;23.278;2023-03-23T04:29:33;63.90;;;36.43;;
6434;SDS011;3250;42.694;23.278;2023-03-23T04:31:59;58.67;;;34.13;;
6434;SDS011;3250;42.694;23.278;2023-03-23T04:34:26;57.83;;;32.63;;
6434;SDS011;3250;42.694;23.278;2023-03-23T04:36:52;57.37;;;34.10;;
6434;SDS011;3250;42.694;23.278;2023-03-23T04:39:17;61.83;;;35.53;;
6434;SDS011;3250;42.694;23.278;2023-03-23T04:41:43;60.27;;;34.17;;
6434;SDS011;3250;42.694;23.278;2023-03-23T04:44:11;56.67;;;36.07;;
6434;SDS011;3250;42.694;23.278;2023-03-23T04:46:42;60.70;;;37.43;;
6434;SDS011;3250;42.694;23.278;2023-03-23T04:49:10;82.80;;;41.47;;
6434;SDS011;3250;42.694;23.278;2023-03-23T04:51:36;111.90;;;53.07;;
6434;SDS011;3250;42.694;23.278;2023-03-23T04:54:01;97.47;;;49.00;;
6434;SDS011;3250;42.694;23.278;2023-03-23T04:56:26;96.20;;;49.30;;
6434;SDS011;3250;42.694;23.278;2023-03-23T04:58:52;90.33;;;46.53;;
6434;SDS011;3250;42.694;23.278;2023-03-23T05:01:17;89.53;;;44.33;;
6434;SDS011;3250;42.694;23.278;2023-03-23T05:03:43;81.17;;;42.40;;
6434;SDS011;3250;42.694;23.278;2023-03-23T05:06:09;92.63;;;46.90;;
6434;SDS011;3250;42.694;23.278;2023-03-23T05:08:35;79.40;;;42.73;;
6434;SDS011;3250;42.694;23.278;2023-03-23T05:11:04;85.77;;;44.37;;
6434;SDS011;3250;42.694;23.278;2023-03-23T05:13:31;78.67;;;43.47;;
6434;SDS011;3250;42.694;23.278;2023-03-23T05:15:57;73.77;;;39.60;;
6434;SDS011;3250;42.694;23.278;2023-03-23T05:18:23;81.97;;;39.13;;
6434;SDS011;3250;42.694;23.278;2023-03-23T05:20:48;83.67;;;42.40;;
6434;SDS011;3250;42.694;23.278;2023-03-23T05:23:17;85.50;;;44.13;;
6434;SDS011;3250;42.694;23.278;2023-03-23T05:25:52;76.10;;;39.57;;
6434;SDS011;3250;42.694;23.278;2023-03-23T05:28:20;71.03;;;38.87;;
6434;SDS011;3250;42.694;23.278;2023-03-23T05:30:47;69.60;;;38.17;;
6434;SDS011;3250;42.694;23.278;2023-03-23T05:33:13;85.03;;;45.80;;
6434;SDS011;3250;42.694;23.278;2023-03-23T05:35:38;94.93;;;52.20;;
6434;SDS011;3250;42.694;23.278;2023-03-23T05:38:04;80.10;;;49.37;;
6434;SDS011;3250;42.694;23.278;2023-03-23T05:40:29;74.07;;;41.97;;
6434;SDS011;3250;42.694;23.278;2023-03-23T05:42:55;66.80;;;39.53;;
6434;SDS011;3250;42.694;23.278;2023-03-23T05:45:23;61.20;;;39.00;;
6434;SDS011;3250;42.694;23.278;2023-03-23T05:47:49;67.63;;;39.27;;
6434;SDS011;3250;42.694;23.278;2023-03-23T05:50:15;68.37;;;41.93;;
6434;SDS011;3250;42.694;23.278;2023-03-23T05:52:41;66.77;;;39.43;;
6434;SDS011;3250;42.694;23.278;2023-03-23T05:55:07;77.90;;;43.13;;
6434;SDS011;3250;42.694;23.278;2023-03-23T05:57:33;71.73;;;41.20;;
6434;SDS011;3250;42.694;23.278;2023-03-23T05:59:59;73.33;;;42.80;;
6434;SDS011;3250;42.694;23.278;2023-03-23T06:02:25;71.87;;;38.50;;
6434;SDS011;3250;42.694;23.278;2023-03-23T06:04:54;72.70;;;40.43;;
6434;SDS011;3250;42.694;23.278;2023-03-23T06:07:22;70.67;;;40.40;;
6434;SDS011;3250;42.694;23.278;2023-03-23T06:09:49;71.77;;;42.53;;
6434;SDS011;3250;42.694;23.278;2023-03-23T06:12:15;75.30;;;42.73;;
6434;SDS011;3250;42.694;23.278;2023-03-23T06:14:45;58.93;;;37.83;;
6434;SDS011;3250;42.694;23.278;2023-03-23T06:17:14;62.17;;;37.97;;
6434;SDS011;3250;42.694;23.278;2023-03-23T06:19:42;53.20;;;31.00;;
6434;SDS011;3250;42.694;23.278;2023-03-23T06:22:08;70.00;;;43.87;;
6434;SDS011;3250;42.694;23.278;2023-03-23T06:24:34;46.05;;;29.42;;
6434;SDS011;3250;42.694;23.278;2023-03-23T06:26:59;38.72;;;25.88;;
6434;SDS011;3250;42.694;23.278;2023-03-23T06:29:25;77.95;;;48.65;;
6434;SDS011;3250;42.694;23.278;2023-03-23T06:31:51;54.78;;;34.20;;
6434;SDS011;3250;42.694;23.278;2023-03-23T06:34:21;35.20;;;23.58;;
6434;SDS011;3250;42.694;23.278;2023-03-23T06:36:46;48.65;;;29.92;;
6434;SDS011;3250;42.694;23.278;2023-03-23T06:39:12;53.15;;;34.30;;
6434;SDS011;3250;42.694;23.278;2023-03-23T06:41:39;41.92;;;26.40;;
6434;SDS011;3250;42.694;23.278;2023-03-23T06:44:04;38.28;;;24.65;;
6434;SDS011;3250;42.694;23.278;2023-03-23T06:46:33;33.78;;;22.50;;
6434;SDS011;3250;42.694;23.278;2023-03-23T06:48:58;34.47;;;21.10;;
6434;SDS011;3250;42.694;23.278;2023-03-23T06:51:24;34.10;;;21.70;;
6434;SDS011;3250;42.694;23.278;2023-03-23T06:53:49;35.08;;;22.63;;
6434;SDS011;3250;42.694;23.278;2023-03-23T06:56:15;33.10;;;21.75;;
6434;SDS011;3250;42.694;23.278;2023-03-23T06:58:41;40.53;;;21.98;;
6434;SDS011;3250;42.694;23.278;2023-03-23T07:01:10;34.78;;;22.42;;
6434;SDS011;3250;42.694;23.278;2023-03-23T07:03:36;30.17;;;21.08;;
6434;SDS011;3250;42.694;23.278;2023-03-23T07:06:02;33.80;;;21.73;;
6434;SDS011;3250;42.694;23.278;2023-03-23T07:08:28;34.88;;;19.60;;
6434;SDS011;3250;42.694;23.278;2023-03-23T07:10:54;30.40;;;18.67;;
6434;SDS011;3250;42.694;23.278;2023-03-23T07:13:20;27.95;;;18.30;;
6434;SDS011;3250;42.694;23.278;2023-03-23T07:15:45;29.73;;;17.77;;
6434;SDS011;3250;42.694;23.278;2023-03-23T07:18:11;31.13;;;17.42;;
6434;SDS011;3250;42.694;23.278;2023-03-23T07:20:37;30.67;;;17.92;;
6434;SDS011;3250;42.694;23.278;2023-03-23T07:23:03;23.25;;;16.15;;
6434;SDS011;3250;42.694;23.278;2023-03-23T07:25:30;23.63;;;16.83;;
6434;SDS011;3250;42.694;23.278;2023-03-23T07:27:59;22.17;;;16.25;;
6434;SDS011;3250;42.694;23.278;2023-03-23T07:30:26;28.73;;;16.67;;
6434;SDS011;3250;42.694;23.278;2023-03-23T07:32:52;26.60;;;16.42;;
6434;SDS011;3250;42.694;23.278;2023-03-23T07:35:18;24.65;;;16.27;;
6434;SDS011;3250;42.694;23.278;2023-03-23T07:37:43;21.88;;;14.75;;
6434;SDS011;3250;42.694;23.278;2023-03-23T07:40:10;29.83;;;15.25;;
6434;SDS011;3250;42.694;23.278;2023-03-23T07:42:40;23.30;;;15.00;;
6434;SDS011;3250;42.694;23.278;2023-03-23T07:45:10;22.15;;;14.80;;
6434;SDS011;3250;42.694;23.278;2023-03-23T07:47:37;24.80;;;16.15;;
6434;SDS011;3250;42.694;23.278;2023-03-23T07:50:04;28.25;;;15.45;;
6434;SDS011;3250;42.694;23.278;2023-03-23T07:52:31;25.92;;;16.13;;
6434;SDS011;3250;42.694;23.278;2023-03-23T07:54:57;26.17;;;15.68;;
6434;SDS011;3250;42.694;23.278;2023-03-23T07:57:23;25.45;;;16.77;;
6434;SDS011;3250;42.694;23.278;2023-03-23T07:59:49;23.27;;;14.85;;
6434;SDS011;3250;42.694;23.278;2023-03-23T08:02:14;24.02;;;15.95;;
6434;SDS011;3250;42.694;23.278;2023-03-23T08:04:40;30.70;;;16.05;;
6434;SDS011;3250;42.694;23.278;2023-03-23T08:07:05;23.20;;;15.50;;
6434;SDS011;3250;42.694;23.278;2023-03-23T08:09:31;27.25;;;16.92;;
6434;SDS011;3250;42.694;23.278;2023-03-23T08:11:56;26.85;;;16.10;;
6434;SDS011;3250;42.694;23.278;2023-03-23T08:14:22;24.02;;;14.57;;
6434;SDS011;3250;42.694;23.278;2023-03-23T08:16:52;28.17;;;14.85;;
6434;SDS011;3250;42.694;23.278;2023-03-23T08:19:20;25.80;;;14.45;;
6434;SDS011;3250;42.694;23.278;2023-03-23T08:21:45;20.35;;;13.02;;
6434;SDS011;3250;42.694;23.278;2023-03-23T08:24:11;30.38;;;14.60;;
6434;SDS011;3250;42.694;23.278;2023-03-23T08:26:36;20.33;;;13.18;;
6434;SDS011;3250;42.694;23.278;2023-03-23T08:29:03;23.58;;;14.38;;
6434;SDS011;3250;42.694;23.278;2023-03-23T08:31:30;23.70;;;13.35;;
6434;SDS011;3250;42.694;23.278;2023-03-23T08:33:59;18.77;;;11.25;;
6434;SDS011;3250;42.694;23.278;2023-03-23T08:36:25;16.45;;;10.93;;
6434;SDS011;3250;42.694;23.278;2023-03-23T08:38:52;19.17;;;11.43;;
6434;SDS011;3250;42.694;23.278;2023-03-23T08:41:18;18.65;;;10.90;;
6434;SDS011;3250;42.694;23.278;2023-03-23T08:43:44;19.10;;;11.70;;
6434;SDS011;3250;42.694;23.278;2023-03-23T08:46:09;11.90;;;7.57;;
6434;SDS011;3250;42.694;23.278;2023-03-23T08:48:36;14.73;;;8.85;;
6434;SDS011;3250;42.694;23.278;2023-03-23T08:51:03;12.23;;;8.25;;
6434;SDS011;3250;42.694;23.278;2023-03-23T08:53:30;9.73;;;7.18;;
6434;SDS011;3250;42.694;23.278;2023-03-23T08:56:04;10.85;;;7.13;;
6434;SDS011;3250;42.694;23.278;2023-03-23T08:58:30;12.95;;;7.80;;
6434;SDS011;3250;42.694;23.278;2023-03-23T09:00:56;13.95;;;7.72;;
6434;SDS011;3250;42.694;23.278;2023-03-23T09:03:21;8.90;;;6.57;;
6434;SDS011;3250;42.694;23.278;2023-03-23T09:05:46;11.32;;;6.68;;
6434;SDS011;3250;42.694;23.278;2023-03-23T09:08:13;8.73;;;5.68;;
6434;SDS011;3250;42.694;23.278;2023-03-23T09:10:39;8.52;;;6.40;;
6434;SDS011;3250;42.694;23.278;2023-03-23T09:13:04;7.82;;;5.38;;
6434;SDS011;3250;42.694;23.278;2023-03-23T09:15:31;7.20;;;6.07;;
6434;SDS011;3250;42.694;23.278;2023-03-23T09:17:57;8.88;;;5.97;;
6434;SDS011;3250;42.694;23.278;2023-03-23T09:20:24;10.32;;;5.78;;
6434;SDS011;3250;42.694;23.278;2023-03-23T09:22:51;8.52;;;6.18;;
6434;SDS011;3250;42.694;23.278;2023-03-23T09:25:19;9.38;;;6.57;;
6434;SDS011;3250;42.694;23.278;2023-03-23T09:27:48;14.45;;;7.38;;
6434;SDS011;3250;42.694;23.278;2023-03-23T09:30:18;10.27;;;6.28;;
6434;SDS011;3250;42.694;23.278;2023-03-23T09:32:45;9.02;;;6.22;;
6434;SDS011;3250;42.694;23.278;2023-03-23T09:35:13;9.18;;;5.93;;
6434;SDS011;3250;42.694;23.278;2023-03-23T09:37:41;9.95;;;5.80;;
6434;SDS011;3250;42.694;23.278;2023-03-23T09:40:16;9.85;;;5.93;;
6434;SDS011;3250;42.694;23.278;2023-03-23T09:43:01;7.10;;;5.40;;
6434;SDS011;3250;42.694;23.278;2023-03-23T09:51:20;11.00;;;8.15;;
6434;SDS011;3250;42.694;23.278;2023-03-23T09:54:04;9.70;;;6.20;;
6434;SDS011;3250;42.694;23.278;2023-03-23T09:56:45;7.38;;;6.07;;
6434;SDS011;3250;42.694;23.278;2023-03-23T10:01:53;6.88;;;4.80;;
6434;SDS011;3250;42.694;23.278;2023-03-23T10:09:56;9.75;;;7.13;;
6434;SDS011;3250;42.694;23.278;2023-03-23T10:12:37;11.23;;;6.55;;
6434;SDS011;3250;42.694;23.278;2023-03-23T10:20:42;8.73;;;6.10;;
6434;SDS011;3250;42.694;23.278;2023-03-23T10:26:37;7.18;;;4.72;;
6434;SDS011;3250;42.694;23.278;2023-03-23T10:29:26;7.28;;;5.15;;
6434;SDS011;3250;42.694;23.278;2023-03-23T10:31:59;7.18;;;5.25;;
6434;SDS011;3250;42.694;23.278;2023-03-23T10:34:32;7.95;;;5.22;;
6434;SDS011;3250;42.694;23.278;2023-03-23T10:37:26;6.60;;;4.22;;
6434;SDS011;3250;42.694;23.278;2023-03-23T10:39:57;7.50;;;5.20;;
6434;SDS011;3250;42.694;23.278;2023-03-23T10:44:52;8.77;;;5.27;;
6434;SDS011;3250;42.694;23.278;2023-03-23T10:47:19;7.47;;;5.32;;
6434;SDS011;3250;42.694;23.278;2023-03-23T10:49:49;9.07;;;6.10;;
6434;SDS011;3250;42.694;23.278;2023-03-23T10:52:26;8.13;;;5.65;;
6434;SDS011;3250;42.694;23.278;2023-03-23T10:57:26;8.88;;;5.75;;
6434;SDS011;3250;42.694;23.278;2023-03-23T11:00:00;9.07;;;6.32;;
6434;SDS011;3250;42.694;23.278;2023-03-23T11:02:35;8.98;;;6.38;;
6434;SDS011;3250;42.694;23.278;2023-03-23T11:05:19;6.50;;;5.45;;
6434;SDS011;3250;42.694;23.278;2023-03-23T11:07:53;8.73;;;6.00;;
6434;SDS011;3250;42.694;23.278;2023-03-23T11:10:21;11.57;;;5.38;;
6434;SDS011;3250;42.694;23.278;2023-03-23T11:12:52;7.43;;;5.20;;
6434;SDS011;3250;42.694;23.278;2023-03-23T11:15:29;7.05;;;5.13;;
6434;SDS011;3250;42.694;23.278;2023-03-23T11:17:58;7.65;;;5.20;;
6434;SDS011;3250;42.694;23.278;2023-03-23T11:20:26;9.38;;;4.93;;
6434;SDS011;3250;42.694;23.278;2023-03-23T11:22:54;10.98;;;6.18;;
6434;SDS011;3250;42.694;23.278;2023-03-23T11:25:20;8.02;;;5.68;;
6434;SDS011;3250;42.694;23.278;2023-03-23T11:27:46;7.22;;;5.43;;
6434;SDS011;3250;42.694;23.278;2023-03-23T11:30:20;10.35;;;6.10;;
6434;SDS011;3250;42.694;23.278;2023-03-23T11:32:49;8.77;;;5.22;;
6434;SDS011;3250;42.694;23.278;2023-03-23T11:35:19;8.03;;;5.80;;
6434;SDS011;3250;42.694;23.278;2023-03-23T11:37:49;7.38;;;5.78;;
6434;SDS011;3250;42.694;23.278;2023-03-23T11:40:24;9.05;;;4.88;;
6434;SDS011;3250;42.694;23.278;2023-03-23T11:43:12;6.72;;;5.05;;
6434;SDS011;3250;42.694;23.278;2023-03-23T11:45:41;5.72;;;4.78;;
6434;SDS011;3250;42.694;23.278;2023-03-23T11:48:19;6.38;;;5.00;;
6434;SDS011;3250;42.694;23.278;2023-03-23T11:51:01;7.60;;;4.95;;
6434;SDS011;3250;42.694;23.278;2023-03-23T11:56:42;6.05;;;4.82;;
6434;SDS011;3250;42.694;23.278;2023-03-23T11:59:28;7.80;;;5.22;;
6434;SDS011;3250;42.694;23.278;2023-03-23T12:02:00;7.05;;;5.63;;
6434;SDS011;3250;42.694;23.278;2023-03-23T12:13:55;6.67;;;4.80;;
6434;SDS011;3250;42.694;23.278;2023-03-23T12:19:26;6.78;;;4.95;;
6434;SDS011;3250;42.694;23.278;2023-03-23T12:32:44;6.00;;;4.30;;
6434;SDS011;3250;42.694;23.278;2023-03-23T12:35:59;7.93;;;4.30;;
6434;SDS011;3250;42.694;23.278;2023-03-23T12:44:21;7.38;;;5.30;;
6434;SDS011;3250;42.694;23.278;2023-03-23T12:49:43;6.25;;;4.43;;
6434;SDS011;3250;42.694;23.278;2023-03-23T12:58:08;7.63;;;4.80;;
6434;SDS011;3250;42.694;23.278;2023-03-23T13:06:39;6.20;;;4.07;;
6434;SDS011;3250;42.694;23.278;2023-03-23T13:09:17;5.80;;;3.60;;
6434;SDS011;3250;42.694;23.278;2023-03-23T13:11:52;4.95;;;4.00;;
6434;SDS011;3250;42.694;23.278;2023-03-23T13:19:48;4.63;;;3.90;;
6434;SDS011;3250;42.694;23.278;2023-03-23T13:24:51;6.32;;;4.97;;
6434;SDS011;3250;42.694;23.278;2023-03-23T13:27:23;6.00;;;4.85;;
6434;SDS011;3250;42.694;23.278;2023-03-23T13:29:52;7.63;;;4.32;;
6434;SDS011;3250;42.694;23.278;2023-03-23T13:32:33;5.60;;;3.75;;
6434;SDS011;3250;42.694;23.278;2023-03-23T13:35:03;5.18;;;3.60;;
6434;SDS011;3250;42.694;23.278;2023-03-23T13:37:40;5.63;;;3.60;;
6434;SDS011;3250;42.694;23.278;2023-03-23T13:42:39;5.57;;;3.88;;
6434;SDS011;3250;42.694;23.278;2023-03-23T13:47:43;5.05;;;3.97;;
6434;SDS011;3250;42.694;23.278;2023-03-23T13:57:57;6.07;;;4.10;;
6434;SDS011;3250;42.694;23.278;2023-03-23T14:00:45;4.38;;;3.78;;
6434;SDS011;3250;42.694;23.278;2023-03-23T14:03:17;4.28;;;3.70;;
6434;SDS011;3250;42.694;23.278;2023-03-23T14:08:24;6.47;;;3.95;;
6434;SDS011;3250;42.694;23.278;2023-03-23T14:11:15;6.47;;;4.10;;
6434;SDS011;3250;42.694;23.278;2023-03-23T14:16:31;5.45;;;3.80;;
6434;SDS011;3250;42.694;23.278;2023-03-23T14:21:58;8.23;;;4.30;;
6434;SDS011;3250;42.694;23.278;2023-03-23T14:26:52;4.65;;;3.92;;
6434;SDS011;3250;42.694;23.278;2023-03-23T14:29:26;5.95;;;3.60;;
6434;SDS011;3250;42.694;23.278;2023-03-23T14:31:55;4.95;;;3.85;;
6434;SDS011;3250;42.694;23.278;2023-03-23T14:34:24;4.72;;;3.92;;
6434;SDS011;3250;42.694;23.278;2023-03-23T14:36:52;6.65;;;4.03;;
6434;SDS011;3250;42.694;23.278;2023-03-23T14:41:52;5.68;;;4.32;;
6434;SDS011;3250;42.694;23.278;2023-03-23T14:47:09;6.90;;;4.25;;
6434;SDS011;3250;42.694;23.278;2023-03-23T14:49:41;9.93;;;5.03;;
6434;SDS011;3250;42.694;23.278;2023-03-23T14:52:17;6.15;;;4.35;;
6434;SDS011;3250;42.694;23.278;2023-03-23T14:54:43;6.40;;;4.28;;
6434;SDS011;3250;42.694;23.278;2023-03-23T14:59:51;5.00;;;4.07;;
6434;SDS011;3250;42.694;23.278;2023-03-23T15:02:18;5.65;;;4.28;;
6434;SDS011;3250;42.694;23.278;2023-03-23T15:05:00;6.22;;;4.00;;
6434;SDS011;3250;42.694;23.278;2023-03-23T15:07:31;6.40;;;4.40;;
6434;SDS011;3250;42.694;23.278;2023-03-23T15:10:00;6.63;;;4.20;;
6434;SDS011;3250;42.694;23.278;2023-03-23T15:12:28;6.45;;;4.30;;
6434;SDS011;3250;42.694;23.278;2023-03-23T15:14:57;6.50;;;3.92;;
6434;SDS011;3250;42.694;23.278;2023-03-23T15:17:26;6.10;;;4.38;;
6434;SDS011;3250;42.694;23.278;2023-03-23T15:19:54;7.25;;;4.43;;
6434;SDS011;3250;42.694;23.278;2023-03-23T15:22:28;6.28;;;4.40;;
6434;SDS011;3250;42.694;23.278;2023-03-23T15:27:55;7.50;;;4.32;;
6434;SDS011;3250;42.694;23.278;2023-03-23T15:32:47;5.75;;;4.05;;
6434;SDS011;3250;42.694;23.278;2023-03-23T15:35:15;7.50;;;5.18;;
6434;SDS011;3250;42.694;23.278;2023-03-23T15:37:48;9.18;;;4.68;;
6434;SDS011;3250;42.694;23.278;2023-03-23T15:40:17;5.75;;;4.43;;
6434;SDS011;3250;42.694;23.278;2023-03-23T15:42:47;7.57;;;4.70;;
6434;SDS011;3250;42.694;23.278;2023-03-23T15:52:50;8.07;;;5.55;;
6434;SDS011;3250;42.694;23.278;2023-03-23T15:57:51;6.68;;;4.57;;
6434;SDS011;3250;42.694;23.278;2023-03-23T16:00:18;7.93;;;5.55;;
6434;SDS011;3250;42.694;23.278;2023-03-23T16:02:46;6.85;;;5.15;;
6434;SDS011;3250;42.694;23.278;2023-03-23T16:05:15;8.52;;;5.40;;
6434;SDS011;3250;42.694;23.278;2023-03-23T16:07:40;8.70;;;5.67;;
6434;SDS011;3250;42.694;23.278;2023-03-23T16:10:06;8.67;;;5.43;;
6434;SDS011;3250;42.694;23.278;2023-03-23T16:12:38;9.70;;;5.10;;
6434;SDS011;3250;42.694;23.278;2023-03-23T16:15:04;7.73;;;4.93;;
6434;SDS011;3250;42.694;23.278;2023-03-23T16:17:30;8.55;;;5.13;;
6434;SDS011;3250;42.694;23.278;2023-03-23T16:19:57;8.15;;;4.80;;
6434;SDS011;3250;42.694;23.278;2023-03-23T16:22:22;8.77;;;4.90;;
6434;SDS011;3250;42.694;23.278;2023-03-23T16:24:48;6.97;;;5.43;;
6434;SDS011;3250;42.694;23.278;2023-03-23T16:27:13;8.63;;;5.27;;
6434;SDS011;3250;42.694;23.278;2023-03-23T16:29:38;8.25;;;4.95;;
6434;SDS011;3250;42.694;23.278;2023-03-23T16:32:04;6.87;;;4.83;;
6434;SDS011;3250;42.694;23.278;2023-03-23T16:34:30;8.88;;;5.70;;
6434;SDS011;3250;42.694;23.278;2023-03-23T16:36:57;7.90;;;4.93;;
6434;SDS011;3250;42.694;23.278;2023-03-23T16:39:23;9.13;;;5.00;;
6434;SDS011;3250;42.694;23.278;2023-03-23T16:41:48;8.50;;;4.88;;
6434;SDS011;3250;42.694;23.278;2023-03-23T16:44:14;6.70;;;5.43;;
6434;SDS011;3250;42.694;23.278;2023-03-23T16:46:40;9.00;;;5.20;;
6434;SDS011;3250;42.694;23.278;2023-03-23T16:49:05;8.32;;;4.78;;
6434;SDS011;3250;42.694;23.278;2023-03-23T16:51:30;10.53;;;5.77;;
6434;SDS011;3250;42.694;23.278;2023-03-23T16:53:56;10.73;;;5.80;;
6434;SDS011;3250;42.694;23.278;2023-03-23T16:56:21;9.25;;;5.38;;
6434;SDS011;3250;42.694;23.278;2023-03-23T16:58:47;9.57;;;5.50;;
6434;SDS011;3250;42.694;23.278;2023-03-23T17:01:12;9.80;;;5.00;;
6434;SDS011;3250;42.694;23.278;2023-03-23T17:03:38;8.87;;;5.10;;
6434;SDS011;3250;42.694;23.278;2023-03-23T17:06:03;11.85;;;5.70;;
6434;SDS011;3250;42.694;23.278;2023-03-23T17:08:29;15.63;;;5.32;;
6434;SDS011;3250;42.694;23.278;2023-03-23T17:10:55;14.07;;;4.95;;
6434;SDS011;3250;42.694;23.278;2023-03-23T17:13:21;12.43;;;5.87;;
6434;SDS011;3250;42.694;23.278;2023-03-23T17:15:50;11.65;;;4.97;;
6434;SDS011;3250;42.694;23.278;2023-03-23T17:18:16;10.10;;;5.17;;
6434;SDS011;3250;42.694;23.278;2023-03-23T17:20:42;7.70;;;4.80;;
6434;SDS011;3250;42.694;23.278;2023-03-23T17:23:08;12.13;;;4.80;;
6434;SDS011;3250;42.694;23.278;2023-03-23T17:25:34;11.77;;;5.80;;
6434;SDS011;3250;42.694;23.278;2023-03-23T17:27:59;9.67;;;5.50;;
6434;SDS011;3250;42.694;23.278;2023-03-23T17:30:25;9.93;;;6.37;;
6434;SDS011;3250;42.694;23.278;2023-03-23T17:32:50;11.47;;;5.93;;
6434;SDS011;3250;42.694;23.278;2023-03-23T17:35:17;11.50;;;5.78;;
6434;SDS011;3250;42.694;23.278;2023-03-23T17:37:43;13.57;;;7.20;;